createdAt,value
2022-07-31T00:00:16.439Z,21.33
2022-07-31T00:02:43.057Z,21.34
2022-07-31T00:05:10.106Z,21.26
2022-07-31T00:07:36.963Z,21.31
2022-07-31T00:10:04.796Z,21.37
2022-07-31T00:12:31.625Z,21.35
2022-07-31T00:14:58.214Z,21.35
2022-07-31T00:17:24.759Z,21.44
2022-07-31T00:19:51.380Z,21.41
2022-07-31T00:22:17.949Z,21.42
2022-07-31T00:24:44.618Z,21.48
2022-07-31T00:27:11.373Z,21.53
2022-07-31T00:29:38.525Z,21.49
2022-07-31T00:32:05.589Z,21.40
2022-07-31T00:34:32.810Z,21.36
2022-07-31T00:36:59.528Z,21.27
2022-07-31T00:39:26.691Z,21.26
2022-07-31T00:41:55.091Z,21.30
2022-07-31T00:44:22.020Z,21.29
2022-07-31T00:46:49.589Z,21.27
2022-07-31T00:49:16.363Z,21.26
2022-07-31T00:51:43.397Z,21.24
2022-07-31T00:54:17.513Z,21.25
2022-07-31T00:56:50.167Z,21.16
2022-07-31T00:59:16.941Z,21.18
2022-07-31T01:01:51.401Z,21.18
2022-07-31T01:04:19.101Z,21.12
2022-07-31T01:06:46.865Z,21.14
2022-07-31T01:09:19.956Z,21.14
2022-07-31T01:11:46.470Z,21.15
2022-07-31T01:14:14.575Z,21.20
2022-07-31T01:16:46.339Z,21.15
2022-07-31T01:19:39.694Z,21.14
2022-07-31T01:22:34.419Z,21.12
2022-07-31T01:25:13.580Z,21.07
2022-07-31T01:27:52.417Z,21.18
2022-07-31T01:30:22.702Z,21.20
2022-07-31T01:32:51.875Z,21.16
2022-07-31T01:35:25.469Z,21.09
2022-07-31T01:38:01.741Z,21.08
2022-07-31T01:40:50.866Z,21.07
2022-07-31T01:43:28.706Z,21.10
2022-07-31T01:45:57.805Z,21.08
2022-07-31T01:48:26.877Z,21.05
2022-07-31T01:50:57.038Z,21.05
2022-07-31T01:53:25.354Z,21.03
2022-07-31T01:56:02.195Z,20.96
2022-07-31T01:58:35.016Z,21.01
2022-07-31T02:01:03.667Z,20.96
2022-07-31T02:03:43.344Z,20.97
2022-07-31T02:06:17.233Z,20.95
2022-07-31T02:08:50.588Z,20.93
2022-07-31T02:11:19.829Z,20.91
2022-07-31T02:13:47.539Z,20.89
2022-07-31T02:16:17.366Z,20.90
2022-07-31T02:18:44.146Z,20.89
2022-07-31T02:21:10.980Z,20.93
2022-07-31T02:23:38.395Z,20.83
2022-07-31T02:26:07.265Z,20.83
2022-07-31T02:28:36.723Z,20.83
2022-07-31T02:31:04.073Z,20.77
2022-07-31T02:33:31.353Z,20.79
2022-07-31T02:36:00.323Z,20.78
2022-07-31T02:38:28.466Z,20.76
2022-07-31T02:40:58.983Z,20.76
2022-07-31T02:43:27.499Z,20.79
2022-07-31T02:45:56.031Z,20.79
2022-07-31T02:48:24.180Z,20.84
2022-07-31T02:50:51.654Z,20.90
2022-07-31T02:53:18.659Z,20.88
2022-07-31T02:55:45.681Z,20.80
2022-07-31T02:58:12.957Z,20.88
2022-07-31T03:00:39.859Z,20.87
2022-07-31T03:03:06.489Z,20.92
2022-07-31T03:05:33.008Z,20.83
2022-07-31T03:07:59.523Z,20.83
2022-07-31T03:10:26.286Z,20.80
2022-07-31T03:12:54.942Z,20.81
2022-07-31T03:15:25.495Z,20.79
2022-07-31T03:17:53.976Z,20.79
2022-07-31T03:20:21.731Z,20.77
2022-07-31T03:22:48.678Z,20.75
2022-07-31T03:25:21.612Z,20.71
2022-07-31T03:27:55.764Z,20.71
2022-07-31T03:30:25.359Z,20.70
2022-07-31T03:32:53.327Z,20.71
2022-07-31T03:35:20.219Z,20.73
2022-07-31T03:37:46.797Z,20.70
2022-07-31T03:40:13.915Z,20.66
2022-07-31T03:42:41.006Z,20.64
2022-07-31T03:45:10.726Z,20.66
2022-07-31T03:47:38.049Z,20.67
2022-07-31T03:50:06.473Z,20.71
2022-07-31T03:52:33.071Z,20.65
2022-07-31T03:54:59.701Z,20.70
2022-07-31T03:57:29.076Z,20.65
2022-07-31T03:59:58.716Z,20.68
2022-07-31T04:02:28.205Z,20.70
2022-07-31T04:04:55.625Z,20.73
2022-07-31T04:07:22.270Z,20.69
2022-07-31T04:09:48.929Z,20.76
2022-07-31T04:12:15.554Z,20.83
2022-07-31T04:14:42.198Z,20.77
2022-07-31T04:17:08.991Z,20.76
2022-07-31T04:19:35.804Z,20.77
2022-07-31T04:22:03.120Z,20.69
2022-07-31T04:24:29.905Z,20.68
2022-07-31T04:26:57.539Z,20.70
2022-07-31T04:29:24.889Z,20.72
2022-07-31T04:31:51.419Z,20.70
2022-07-31T04:34:18.008Z,20.67
2022-07-31T04:36:44.646Z,20.69
2022-07-31T04:39:12.395Z,20.73
2022-07-31T04:41:39.820Z,20.75
2022-07-31T04:44:06.335Z,20.74
2022-07-31T04:46:33.142Z,20.70
2022-07-31T04:48:59.717Z,20.76
2022-07-31T04:51:26.428Z,20.67
2022-07-31T04:53:53.066Z,20.68
2022-07-31T04:56:42.134Z,20.72
2022-07-31T04:59:14.019Z,20.70
2022-07-31T05:01:42.565Z,20.74
2022-07-31T05:04:10.535Z,20.71
2022-07-31T05:06:43.365Z,20.74
2022-07-31T05:09:19.212Z,20.64
2022-07-31T05:11:50.218Z,20.71
2022-07-31T05:14:18.790Z,20.74
2022-07-31T05:16:45.845Z,20.75
2022-07-31T05:19:14.575Z,20.84
2022-07-31T05:21:53.408Z,20.77
2022-07-31T05:24:22.650Z,20.83
2022-07-31T05:27:00.947Z,20.83
2022-07-31T05:29:27.539Z,20.91
2022-07-31T05:32:00.306Z,21.02
2022-07-31T05:34:31.068Z,20.98
2022-07-31T05:37:01.874Z,20.88
2022-07-31T05:39:29.340Z,21.00
2022-07-31T05:41:55.849Z,21.16
2022-07-31T05:44:22.349Z,21.19
2022-07-31T05:49:15.537Z,21.25
2022-07-31T05:51:46.896Z,21.28
2022-07-31T05:54:14.073Z,21.24
2022-07-31T05:56:40.718Z,21.26
2022-07-31T05:59:07.256Z,21.42
2022-07-31T06:01:33.841Z,21.51
2022-07-31T06:04:00.486Z,21.50
2022-07-31T06:06:26.988Z,21.64
2022-07-31T06:08:53.533Z,21.72
2022-07-31T06:11:20.389Z,21.79
2022-07-31T06:13:46.921Z,21.80
2022-07-31T06:16:14.942Z,21.81
2022-07-31T06:18:42.411Z,21.90
2022-07-31T06:21:09.006Z,21.98
2022-07-31T06:23:35.866Z,21.93
2022-07-31T06:26:02.626Z,22.04
2022-07-31T06:28:48.119Z,22.01
2022-07-31T06:31:22.745Z,22.10
2022-07-31T06:33:50.255Z,22.03
2022-07-31T06:36:18.503Z,22.02
2022-07-31T06:38:46.066Z,21.91
2022-07-31T06:41:32.808Z,21.91
2022-07-31T06:43:59.375Z,21.94
2022-07-31T06:46:25.917Z,21.83
2022-07-31T06:48:52.523Z,21.88
2022-07-31T06:51:34.488Z,22.02
2022-07-31T06:54:02.258Z,22.12
2022-07-31T06:56:30.203Z,22.18
2022-07-31T06:58:56.951Z,22.37
2022-07-31T07:01:23.590Z,22.49
2022-07-31T07:03:50.232Z,22.61
2022-07-31T07:06:16.811Z,22.64
2022-07-31T07:08:43.614Z,22.73
2022-07-31T07:11:12.348Z,22.55
2022-07-31T07:13:46.199Z,22.55
2022-07-31T07:16:15.018Z,22.52
2022-07-31T07:18:43.184Z,22.60
2022-07-31T07:21:10.235Z,22.65
2022-07-31T07:23:36.806Z,22.69
2022-07-31T07:26:03.872Z,22.82
2022-07-31T07:28:31.478Z,22.95
2022-07-31T07:30:59.077Z,23.03
2022-07-31T07:33:39.610Z,23.23
2022-07-31T07:36:07.176Z,23.58
2022-07-31T07:38:33.710Z,23.92
2022-07-31T07:41:02.357Z,24.20
2022-07-31T07:43:29.473Z,24.19
2022-07-31T07:45:55.978Z,24.27
2022-07-31T07:48:22.527Z,24.23
2022-07-31T07:50:49.079Z,24.18
2022-07-31T07:53:15.598Z,24.30
2022-07-31T07:55:42.133Z,24.42
2022-07-31T07:58:11.879Z,24.36
2022-07-31T08:00:39.336Z,24.49
2022-07-31T08:03:49.878Z,24.12
2022-07-31T08:05:53.407Z,24.37
2022-07-31T08:08:19.979Z,24.13
2022-07-31T08:10:46.587Z,24.02
2022-07-31T08:13:13.173Z,23.92
2022-07-31T08:15:39.895Z,23.95
2022-07-31T08:18:06.509Z,23.87
2022-07-31T08:20:33.059Z,23.78
2022-07-31T08:22:59.580Z,23.87
2022-07-31T08:25:31.226Z,24.07
2022-07-31T08:27:58.978Z,23.89
2022-07-31T08:30:31.164Z,23.92
2022-07-31T08:32:58.014Z,23.85
2022-07-31T08:35:25.522Z,24.37
2022-07-31T08:38:03.395Z,24.46
2022-07-31T08:40:30.860Z,24.47
2022-07-31T08:43:00.995Z,24.42
2022-07-31T08:45:28.641Z,24.46
2022-07-31T08:47:57.397Z,24.55
2022-07-31T08:50:25.233Z,24.35
2022-07-31T08:52:54.883Z,24.47
2022-07-31T08:55:55.687Z,24.44
2022-07-31T08:58:09.341Z,24.47
2022-07-31T09:00:36.009Z,24.42
2022-07-31T09:03:02.877Z,24.60
2022-07-31T09:05:42.669Z,24.69
2022-07-31T09:08:14.632Z,24.70
2022-07-31T09:10:46.306Z,24.56
2022-07-31T09:13:19.183Z,24.39
2022-07-31T09:15:46.423Z,24.24
2022-07-31T09:18:21.284Z,24.39
2022-07-31T09:20:59.184Z,24.28
2022-07-31T09:23:27.836Z,24.40
2022-07-31T09:25:54.318Z,24.45
2022-07-31T09:28:25.081Z,24.34
2022-07-31T09:30:55.777Z,24.33
2022-07-31T09:33:23.146Z,24.26
2022-07-31T09:35:52.170Z,24.34
2022-07-31T09:38:19.508Z,24.53
2022-07-31T09:40:56.994Z,24.63
2022-07-31T09:43:25.759Z,24.61
2022-07-31T09:45:59.905Z,24.69
2022-07-31T09:48:28.841Z,24.59
2022-07-31T09:51:00.752Z,24.43
2022-07-31T09:53:43.251Z,24.72
2022-07-31T09:56:12.612Z,24.87
2022-07-31T09:58:42.737Z,25.21
2022-07-31T10:01:11.193Z,25.40
2022-07-31T10:03:39.359Z,25.87
2022-07-31T10:06:08.725Z,26.62
2022-07-31T10:08:37.342Z,26.57
2022-07-31T10:11:05.778Z,26.57
2022-07-31T10:13:40.726Z,26.53
2022-07-31T10:16:09.360Z,27.04
2022-07-31T10:18:44.098Z,27.35
2022-07-31T10:21:11.439Z,26.90
2022-07-31T10:23:41.995Z,26.56
2022-07-31T10:26:08.606Z,25.67
2022-07-31T10:28:37.809Z,25.56
2022-07-31T10:31:04.861Z,25.54
2022-07-31T10:33:47.474Z,25.80
2022-07-31T10:36:20.050Z,26.12
2022-07-31T10:39:01.846Z,26.99
2022-07-31T10:41:47.008Z,26.61
2022-07-31T10:44:38.486Z,26.48
2022-07-31T10:47:13.294Z,26.54
2022-07-31T10:49:45.003Z,26.99
2022-07-31T10:52:12.186Z,27.29
2022-07-31T10:54:46.777Z,27.42
2022-07-31T10:57:26.917Z,26.42
2022-07-31T10:59:53.640Z,25.28
2022-07-31T11:02:37.304Z,24.55
2022-07-31T11:05:23.353Z,24.14
2022-07-31T11:08:03.427Z,23.69
2022-07-31T11:10:30.935Z,23.48
2022-07-31T11:13:05.784Z,23.35
2022-07-31T11:15:32.543Z,23.12
2022-07-31T11:18:21.040Z,22.62
2022-07-31T11:20:49.838Z,22.64
2022-07-31T11:23:17.699Z,22.70
2022-07-31T11:25:46.126Z,22.46
2022-07-31T11:28:24.630Z,22.54
2022-07-31T11:30:57.801Z,22.69
2022-07-31T11:33:41.630Z,22.58
2022-07-31T11:36:15.440Z,22.41
2022-07-31T11:38:52.881Z,22.30
2022-07-31T11:41:23.251Z,22.15
2022-07-31T11:43:51.698Z,22.17
2022-07-31T11:46:33.224Z,22.22
2022-07-31T11:49:01.197Z,22.44
2022-07-31T11:51:28.701Z,22.58
2022-07-31T11:53:57.290Z,22.71
2022-07-31T11:56:26.006Z,22.78
2022-07-31T11:58:57.631Z,22.62
2022-07-31T12:01:29.338Z,22.48
2022-07-31T12:04:06.251Z,22.33
2022-07-31T12:06:36.676Z,22.34
2022-07-31T12:09:04.333Z,22.65
2022-07-31T12:11:31.047Z,22.54
2022-07-31T12:13:59.328Z,22.74
2022-07-31T12:16:26.099Z,22.56
2022-07-31T12:18:59.324Z,22.72
2022-07-31T12:21:35.149Z,23.13
2022-07-31T12:24:02.543Z,23.16
2022-07-31T12:26:33.435Z,23.16
2022-07-31T12:29:02.254Z,23.46
2022-07-31T12:31:30.512Z,23.35
2022-07-31T12:33:57.298Z,23.29
2022-07-31T12:36:23.882Z,23.67
2022-07-31T12:39:05.263Z,23.62
2022-07-31T12:41:42.366Z,23.64
2022-07-31T12:44:14.405Z,24.05
2022-07-31T12:46:41.596Z,25.10
2022-07-31T12:49:08.594Z,25.81
2022-07-31T12:51:46.286Z,25.81
2022-07-31T12:54:15.784Z,25.72
2022-07-31T12:56:42.920Z,25.43
2022-07-31T12:59:10.483Z,25.02
2022-07-31T13:01:37.685Z,24.58
2022-07-31T13:04:07.854Z,24.52
2022-07-31T13:06:45.468Z,24.73
2022-07-31T13:09:12.022Z,25.44
2022-07-31T13:11:46.664Z,26.08
2022-07-31T13:14:18.946Z,25.82
2022-07-31T13:16:46.638Z,26.74
2022-07-31T13:19:13.716Z,26.71
2022-07-31T13:21:49.603Z,27.06
2022-07-31T13:24:18.881Z,26.61
2022-07-31T13:26:46.274Z,26.14
2022-07-31T13:29:13.065Z,27.29
2022-07-31T13:31:39.835Z,26.83
2022-07-31T13:34:06.651Z,27.60
2022-07-31T13:36:38.660Z,27.84
2022-07-31T13:39:06.953Z,27.77
2022-07-31T13:41:35.487Z,27.24
2022-07-31T13:44:03.572Z,26.48
2022-07-31T13:46:31.629Z,26.13
2022-07-31T13:49:02.359Z,26.24
2022-07-31T13:51:29.951Z,26.35
2022-07-31T13:53:56.792Z,26.35
2022-07-31T13:56:40.393Z,26.76
2022-07-31T13:59:11.792Z,28.21
2022-07-31T14:02:12.984Z,27.25
2022-07-31T14:04:28.568Z,26.32
2022-07-31T14:06:59.386Z,28.16
2022-07-31T14:09:27.579Z,28.42
2022-07-31T14:11:54.146Z,29.57
2022-07-31T14:14:23.506Z,30.71
2022-07-31T14:16:50.663Z,29.18
2022-07-31T14:19:17.194Z,27.49
2022-07-31T14:21:56.159Z,26.70
2022-07-31T14:24:24.131Z,26.57
2022-07-31T14:26:50.679Z,26.10
2022-07-31T14:29:17.322Z,25.80
2022-07-31T14:31:43.891Z,25.67
2022-07-31T14:34:10.401Z,25.83
2022-07-31T14:36:37.029Z,25.77
2022-07-31T14:39:03.716Z,25.69
2022-07-31T14:41:30.223Z,26.09
2022-07-31T14:43:56.790Z,26.12
2022-07-31T14:46:23.382Z,26.00
2022-07-31T14:48:49.943Z,26.02
2022-07-31T14:51:17.550Z,26.03
2022-07-31T14:53:44.311Z,26.46
2022-07-31T14:56:10.829Z,26.48
2022-07-31T14:58:58.060Z,26.77
2022-07-31T15:01:23.972Z,28.19
2022-07-31T15:03:53.380Z,28.57
2022-07-31T15:06:41.581Z,29.25
2022-07-31T15:09:07.918Z,27.70
2022-07-31T15:11:59.676Z,27.05
2022-07-31T15:14:21.059Z,26.46
2022-07-31T15:16:49.678Z,26.12
2022-07-31T15:19:16.502Z,26.17
2022-07-31T15:22:09.904Z,28.73
2022-07-31T15:24:33.164Z,30.07
2022-07-31T15:26:59.910Z,30.39
2022-07-31T15:30:00.209Z,30.15
2022-07-31T15:32:13.475Z,28.08
2022-07-31T15:34:40.070Z,26.85
2022-07-31T15:37:07.054Z,26.30
2022-07-31T15:39:33.938Z,26.01
2022-07-31T15:42:01.710Z,25.81
2022-07-31T15:44:28.330Z,25.68
2022-07-31T15:46:55.253Z,25.67
2022-07-31T15:49:22.086Z,25.39
2022-07-31T15:51:48.688Z,25.47
2022-07-31T15:54:15.545Z,25.39
2022-07-31T15:56:42.174Z,25.86
2022-07-31T15:59:08.840Z,26.81
2022-07-31T16:01:35.589Z,32.67
2022-07-31T16:04:02.990Z,30.71
2022-07-31T16:06:43.983Z,27.44
2022-07-31T16:09:16.295Z,26.98
2022-07-31T16:12:04.996Z,30.44
2022-07-31T16:14:29.506Z,30.26
2022-07-31T16:16:56.810Z,29.54
2022-07-31T16:19:25.095Z,30.40
2022-07-31T16:21:55.426Z,28.68
2022-07-31T16:24:22.483Z,27.25
2022-07-31T16:26:49.747Z,26.46
2022-07-31T16:29:17.745Z,26.14
2022-07-31T16:32:03.996Z,29.14
2022-07-31T16:34:30.711Z,28.16
2022-07-31T16:36:57.250Z,29.52
2022-07-31T16:39:23.894Z,29.29
2022-07-31T16:41:54.614Z,28.42
2022-07-31T16:44:21.842Z,27.69
2022-07-31T16:46:54.217Z,27.13
2022-07-31T16:49:35.908Z,27.16
2022-07-31T16:52:03.314Z,27.11
2022-07-31T16:54:29.930Z,27.07
2022-07-31T16:56:56.443Z,27.14
2022-07-31T16:59:22.950Z,26.87
2022-07-31T17:01:53.867Z,26.81
2022-07-31T17:04:27.409Z,26.55
2022-07-31T17:06:54.113Z,26.45
2022-07-31T17:09:20.674Z,26.52
2022-07-31T17:11:49.629Z,26.59
2022-07-31T17:14:17.861Z,26.57
2022-07-31T17:16:47.870Z,26.46
2022-07-31T17:19:16.583Z,26.31
2022-07-31T17:22:03.262Z,26.10
2022-07-31T17:24:31.651Z,26.10
2022-07-31T17:26:59.726Z,26.11
2022-07-31T17:29:26.387Z,26.65
2022-07-31T17:31:52.922Z,28.31
2022-07-31T17:34:19.466Z,29.44
2022-07-31T17:36:48.906Z,29.59
2022-07-31T17:39:16.134Z,29.13
2022-07-31T17:41:42.770Z,28.67
2022-07-31T17:44:09.373Z,29.46
2022-07-31T17:46:48.095Z,29.85
2022-07-31T17:49:19.362Z,29.70
2022-07-31T17:51:58.985Z,29.27
2022-07-31T17:54:34.343Z,28.68
2022-07-31T17:57:01.237Z,28.24
2022-07-31T17:59:28.302Z,27.72
2022-07-31T18:02:04.232Z,27.26
2022-07-31T18:04:33.559Z,27.19
2022-07-31T18:07:02.136Z,26.98
2022-07-31T18:09:29.022Z,26.89
2022-07-31T18:11:56.301Z,26.57
2022-07-31T18:14:24.607Z,26.43
2022-07-31T18:16:52.062Z,26.26
2022-07-31T18:19:18.668Z,26.24
2022-07-31T18:21:45.264Z,26.13
2022-07-31T18:24:11.869Z,25.74
2022-07-31T18:26:38.554Z,25.48
2022-07-31T18:29:06.488Z,25.30
2022-07-31T18:31:35.496Z,25.14
2022-07-31T18:34:06.087Z,25.06
2022-07-31T18:36:35.810Z,24.91
2022-07-31T18:39:04.791Z,24.91
2022-07-31T18:41:31.624Z,24.83
2022-07-31T18:43:58.404Z,24.68
2022-07-31T18:46:25.079Z,24.50
2022-07-31T18:48:56.445Z,24.42
2022-07-31T18:51:24.920Z,24.39
2022-07-31T18:53:51.951Z,24.39
2022-07-31T18:56:21.411Z,24.28
2022-07-31T18:58:48.033Z,24.29
2022-07-31T19:01:14.649Z,24.19
2022-07-31T19:03:41.321Z,24.11
2022-07-31T19:06:08.195Z,24.09
2022-07-31T19:08:34.832Z,23.97
2022-07-31T19:11:01.397Z,24.12
2022-07-31T19:13:29.174Z,24.18
2022-07-31T19:15:55.786Z,23.95
2022-07-31T19:18:25.749Z,23.75
2022-07-31T19:21:00.264Z,23.65
2022-07-31T19:23:41.928Z,23.48
2022-07-31T19:26:08.652Z,23.35
2022-07-31T19:28:36.298Z,23.23
2022-07-31T19:31:02.815Z,23.02
2022-07-31T19:33:29.860Z,23.04
2022-07-31T19:36:01.517Z,23.01
2022-07-31T19:38:32.742Z,22.93
2022-07-31T19:40:59.871Z,22.78
2022-07-31T19:43:27.245Z,22.80
2022-07-31T19:46:09.407Z,22.83
2022-07-31T19:48:44.647Z,22.57
2022-07-31T19:51:12.732Z,22.53
2022-07-31T19:53:39.479Z,22.58
2022-07-31T19:56:06.777Z,22.58
2022-07-31T19:58:35.169Z,22.61
2022-07-31T20:01:03.300Z,22.56
2022-07-31T20:03:30.106Z,22.52
2022-07-31T20:05:57.458Z,22.41
2022-07-31T20:08:24.017Z,22.34
2022-07-31T20:10:51.339Z,22.43
2022-07-31T20:13:18.482Z,22.51
2022-07-31T20:15:51.490Z,22.29
2022-07-31T20:18:23.642Z,22.47
2022-07-31T20:20:57.656Z,22.29
2022-07-31T20:23:25.194Z,22.30
2022-07-31T20:25:51.806Z,22.24
2022-07-31T20:28:18.371Z,22.29
2022-07-31T20:30:44.974Z,22.24
2022-07-31T20:33:13.141Z,22.36
2022-07-31T20:35:48.753Z,22.20
2022-07-31T20:38:20.841Z,22.18
2022-07-31T20:40:53.964Z,22.13
2022-07-31T20:43:27.146Z,21.96
2022-07-31T20:45:57.678Z,21.92
2022-07-31T20:48:31.262Z,21.87
2022-07-31T20:51:02.860Z,21.81
2022-07-31T20:53:30.057Z,21.83
2022-07-31T20:55:57.110Z,21.87
2022-07-31T20:58:25.064Z,21.73
2022-07-31T21:00:53.010Z,21.73
2022-07-31T21:03:20.533Z,21.63
2022-07-31T21:05:47.634Z,21.53
2022-07-31T21:08:14.337Z,21.47
2022-07-31T21:10:41.086Z,21.46
2022-07-31T21:13:09.608Z,21.59
2022-07-31T21:15:42.394Z,21.48
2022-07-31T21:18:18.421Z,21.53
2022-07-31T21:20:51.843Z,21.51
2022-07-31T21:23:29.251Z,21.40
2022-07-31T21:25:58.319Z,21.31
2022-07-31T21:28:27.865Z,21.28
2022-07-31T21:30:56.233Z,21.26
2022-07-31T21:33:27.103Z,21.22
2022-07-31T21:35:55.185Z,21.20
2022-07-31T21:38:22.251Z,21.33
2022-07-31T21:40:49.474Z,21.30
2022-07-31T21:43:18.706Z,21.16
2022-07-31T21:45:54.911Z,21.19
2022-07-31T21:48:24.880Z,21.18
2022-07-31T21:50:52.025Z,21.09
2022-07-31T21:53:18.579Z,21.12
2022-07-31T21:55:45.089Z,21.02
2022-07-31T21:58:11.770Z,20.94
2022-07-31T22:00:38.386Z,20.81
2022-07-31T22:03:05.738Z,21.05
2022-07-31T22:05:52.413Z,21.01
2022-07-31T22:08:19.104Z,20.94
2022-07-31T22:10:46.131Z,20.93
2022-07-31T22:13:12.722Z,20.87
2022-07-31T22:15:52.596Z,20.84
2022-07-31T22:18:30.997Z,20.76
2022-07-31T22:20:58.604Z,20.78
2022-07-31T22:23:27.422Z,20.73
2022-07-31T22:25:54.421Z,20.59
2022-07-31T22:28:23.004Z,20.56
2022-07-31T22:30:49.979Z,20.54
2022-07-31T22:33:16.817Z,20.46
2022-07-31T22:35:43.470Z,20.36
2022-07-31T22:38:13.126Z,20.24
2022-07-31T22:40:39.851Z,20.16
2022-07-31T22:44:10.556Z,20.14
2022-07-31T22:45:59.879Z,20.07
2022-07-31T22:48:27.867Z,20.02
2022-07-31T22:50:55.798Z,20.11
2022-07-31T22:53:22.827Z,20.07
2022-07-31T22:55:49.955Z,19.98
2022-07-31T22:58:16.530Z,20.01
2022-07-31T23:00:43.114Z,20.11
2022-07-31T23:03:09.659Z,20.14
2022-07-31T23:06:28.183Z,20.16
2022-07-31T23:08:22.701Z,20.13
2022-07-31T23:10:49.298Z,19.94
2022-07-31T23:13:15.819Z,19.95
2022-07-31T23:15:42.430Z,19.93
2022-07-31T23:18:08.923Z,19.95
2022-07-31T23:20:35.457Z,19.90
2022-07-31T23:23:01.973Z,19.94
2022-07-31T23:25:28.467Z,19.90
2022-07-31T23:27:54.969Z,19.83
2022-07-31T23:30:21.837Z,19.84
2022-07-31T23:32:48.353Z,19.80
2022-07-31T23:35:15.065Z,19.75
2022-07-31T23:37:41.660Z,19.79
2022-07-31T23:40:08.786Z,19.78
2022-07-31T23:42:37.998Z,19.70
2022-07-31T23:45:11.603Z,19.69
2022-07-31T23:47:45.870Z,19.77
2022-07-31T23:50:14.409Z,19.76
2022-07-31T23:52:41.882Z,19.77
2022-07-31T23:55:09.402Z,19.74
2022-07-31T23:57:36.488Z,19.74
